sensor_id;sensor_type;location;lat;lon;timestamp;P1;durP1;ratioP1;P2;durP2;ratioP2
3131;SDS011;62090;52.330;9.104;2023-07-31T00:01:12;4.73;;;1.90;;
3131;SDS011;62090;52.330;9.104;2023-07-31T00:03:42;9.87;;;2.40;;
3131;SDS011;62090;52.330;9.104;2023-07-31T00:06:12;4.40;;;1.97;;
3131;SDS011;62090;52.330;9.104;2023-07-31T00:08:42;5.20;;;2.70;;
3131;SDS011;62090;52.330;9.104;2023-07-31T00:11:12;9.80;;;2.00;;
3131;SDS011;62090;52.330;9.104;2023-07-31T00:13:42;9.73;;;2.50;;
3131;SDS011;62090;52.330;9.104;2023-07-31T00:16:15;8.10;;;2.00;;
3131;SDS011;62090;52.330;9.104;2023-07-31T00:18:45;6.73;;;2.23;;
3131;SDS011;62090;52.330;9.104;2023-07-31T00:21:14;5.33;;;1.90;;
3131;SDS011;62090;52.330;9.104;2023-07-31T00:23:44;3.07;;;1.97;;
3131;SDS011;62090;52.330;9.104;2023-07-31T00:26:14;5.33;;;2.10;;
3131;SDS011;62090;52.330;9.104;2023-07-31T00:28:45;3.77;;;1.90;;
3131;SDS011;62090;52.330;9.104;2023-07-31T00:31:17;5.37;;;1.90;;
3131;SDS011;62090;52.330;9.104;2023-07-31T00:33:47;3.73;;;2.03;;
3131;SDS011;62090;52.330;9.104;2023-07-31T00:36:17;7.27;;;1.87;;
3131;SDS011;62090;52.330;9.104;2023-07-31T00:38:47;5.93;;;1.93;;
3131;SDS011;62090;52.330;9.104;2023-07-31T00:41:18;3.17;;;2.17;;
3131;SDS011;62090;52.330;9.104;2023-07-31T00:43:48;5.90;;;2.00;;
3131;SDS011;62090;52.330;9.104;2023-07-31T00:46:20;9.30;;;1.87;;
3131;SDS011;62090;52.330;9.104;2023-07-31T00:48:50;3.90;;;1.60;;
3131;SDS011;62090;52.330;9.104;2023-07-31T00:51:20;2.73;;;1.63;;
3131;SDS011;62090;52.330;9.104;2023-07-31T00:53:50;11.33;;;1.87;;
3131;SDS011;62090;52.330;9.104;2023-07-31T00:56:22;4.67;;;1.93;;
3131;SDS011;62090;52.330;9.104;2023-07-31T00:58:53;6.87;;;2.17;;
3131;SDS011;62090;52.330;9.104;2023-07-31T01:01:27;3.30;;;1.40;;
3131;SDS011;62090;52.330;9.104;2023-07-31T01:03:57;9.53;;;1.70;;
3131;SDS011;62090;52.330;9.104;2023-07-31T01:06:28;5.00;;;1.50;;
3131;SDS011;62090;52.330;9.104;2023-07-31T01:09:06;4.30;;;1.63;;
3131;SDS011;62090;52.330;9.104;2023-07-31T01:11:46;2.70;;;1.10;;
3131;SDS011;62090;52.330;9.104;2023-07-31T01:14:20;5.67;;;1.40;;
3131;SDS011;62090;52.330;9.104;2023-07-31T01:16:53;3.97;;;1.83;;
3131;SDS011;62090;52.330;9.104;2023-07-31T01:19:24;3.40;;;1.67;;
3131;SDS011;62090;52.330;9.104;2023-07-31T01:21:59;3.80;;;1.40;;
3131;SDS011;62090;52.330;9.104;2023-07-31T01:24:42;1.60;;;0.97;;
3131;SDS011;62090;52.330;9.104;2023-07-31T01:27:28;1.50;;;1.20;;
3131;SDS011;62090;52.330;9.104;2023-07-31T01:30:05;2.90;;;1.27;;
3131;SDS011;62090;52.330;9.104;2023-07-31T01:32:42;2.33;;;1.37;;
3131;SDS011;62090;52.330;9.104;2023-07-31T01:35:13;2.53;;;1.30;;
3131;SDS011;62090;52.330;9.104;2023-07-31T01:37:42;4.73;;;1.33;;
3131;SDS011;62090;52.330;9.104;2023-07-31T01:40:12;2.63;;;1.27;;
3131;SDS011;62090;52.330;9.104;2023-07-31T01:42:45;3.50;;;1.53;;
3131;SDS011;62090;52.330;9.104;2023-07-31T01:45:16;1.87;;;1.20;;
3131;SDS011;62090;52.330;9.104;2023-07-31T01:48:01;2.97;;;1.70;;
3131;SDS011;62090;52.330;9.104;2023-07-31T01:50:31;2.87;;;1.50;;
3131;SDS011;62090;52.330;9.104;2023-07-31T01:53:01;2.27;;;1.20;;
3131;SDS011;62090;52.330;9.104;2023-07-31T01:55:31;5.00;;;1.80;;
3131;SDS011;62090;52.330;9.104;2023-07-31T01:58:03;2.80;;;1.30;;
3131;SDS011;62090;52.330;9.104;2023-07-31T02:00:33;3.47;;;1.83;;
3131;SDS011;62090;52.330;9.104;2023-07-31T02:03:03;2.03;;;1.53;;
3131;SDS011;62090;52.330;9.104;2023-07-31T02:05:33;2.60;;;2.00;;
3131;SDS011;62090;52.330;9.104;2023-07-31T02:08:03;3.10;;;1.83;;
3131;SDS011;62090;52.330;9.104;2023-07-31T02:10:33;2.43;;;1.70;;
3131;SDS011;62090;52.330;9.104;2023-07-31T02:13:07;2.93;;;2.40;;
3131;SDS011;62090;52.330;9.104;2023-07-31T02:15:37;5.60;;;2.27;;
3131;SDS011;62090;52.330;9.104;2023-07-31T02:18:08;4.27;;;1.63;;
3131;SDS011;62090;52.330;9.104;2023-07-31T02:20:38;2.23;;;2.03;;
3131;SDS011;62090;52.330;9.104;2023-07-31T02:23:08;5.40;;;1.90;;
3131;SDS011;62090;52.330;9.104;2023-07-31T02:25:38;2.30;;;2.00;;
3131;SDS011;62090;52.330;9.104;2023-07-31T02:28:10;2.30;;;1.90;;
3131;SDS011;62090;52.330;9.104;2023-07-31T02:30:43;2.80;;;2.07;;
3131;SDS011;62090;52.330;9.104;2023-07-31T02:33:14;4.60;;;2.90;;
3131;SDS011;62090;52.330;9.104;2023-07-31T02:35:45;2.97;;;2.73;;
3131;SDS011;62090;52.330;9.104;2023-07-31T02:38:17;3.10;;;2.10;;
3131;SDS011;62090;52.330;9.104;2023-07-31T02:40:47;3.20;;;2.20;;
3131;SDS011;62090;52.330;9.104;2023-07-31T02:43:20;2.60;;;2.00;;
3131;SDS011;62090;52.330;9.104;2023-07-31T02:45:50;2.43;;;2.20;;
3131;SDS011;62090;52.330;9.104;2023-07-31T02:48:23;3.87;;;2.20;;
3131;SDS011;62090;52.330;9.104;2023-07-31T02:50:53;2.60;;;2.13;;
3131;SDS011;62090;52.330;9.104;2023-07-31T02:53:23;2.87;;;2.20;;
3131;SDS011;62090;52.330;9.104;2023-07-31T02:55:53;4.40;;;1.83;;
3131;SDS011;62090;52.330;9.104;2023-07-31T02:58:25;3.40;;;2.40;;
3131;SDS011;62090;52.330;9.104;2023-07-31T03:00:55;3.37;;;2.33;;
3131;SDS011;62090;52.330;9.104;2023-07-31T03:03:28;3.40;;;2.57;;
3131;SDS011;62090;52.330;9.104;2023-07-31T03:05:58;2.27;;;2.00;;
3131;SDS011;62090;52.330;9.104;2023-07-31T03:08:28;6.73;;;2.10;;
3131;SDS011;62090;52.330;9.104;2023-07-31T03:10:58;5.93;;;2.40;;
3131;SDS011;62090;52.330;9.104;2023-07-31T03:13:30;2.63;;;2.10;;
3131;SDS011;62090;52.330;9.104;2023-07-31T03:16:00;3.10;;;2.10;;
3131;SDS011;62090;52.330;9.104;2023-07-31T03:18:30;4.97;;;2.53;;
3131;SDS011;62090;52.330;9.104;2023-07-31T03:21:00;3.30;;;2.40;;
3131;SDS011;62090;52.330;9.104;2023-07-31T03:23:30;5.63;;;2.50;;
3131;SDS011;62090;52.330;9.104;2023-07-31T03:26:00;6.37;;;2.63;;
3131;SDS011;62090;52.330;9.104;2023-07-31T03:28:33;3.90;;;2.70;;
3131;SDS011;62090;52.330;9.104;2023-07-31T03:31:03;3.63;;;2.40;;
3131;SDS011;62090;52.330;9.104;2023-07-31T03:33:35;4.90;;;3.00;;
3131;SDS011;62090;52.330;9.104;2023-07-31T03:36:05;5.17;;;2.60;;
3131;SDS011;62090;52.330;9.104;2023-07-31T03:38:35;5.07;;;2.30;;
3131;SDS011;62090;52.330;9.104;2023-07-31T03:41:06;4.90;;;2.33;;
3131;SDS011;62090;52.330;9.104;2023-07-31T03:43:39;6.87;;;3.23;;
3131;SDS011;62090;52.330;9.104;2023-07-31T03:46:09;3.63;;;2.20;;
3131;SDS011;62090;52.330;9.104;2023-07-31T03:48:39;5.80;;;2.50;;
3131;SDS011;62090;52.330;9.104;2023-07-31T03:51:09;3.60;;;1.97;;
3131;SDS011;62090;52.330;9.104;2023-07-31T03:53:39;2.83;;;1.90;;
3131;SDS011;62090;52.330;9.104;2023-07-31T03:56:09;2.60;;;1.40;;
3131;SDS011;62090;52.330;9.104;2023-07-31T03:58:41;4.77;;;2.10;;
3131;SDS011;62090;52.330;9.104;2023-07-31T04:01:11;4.10;;;1.70;;
3131;SDS011;62090;52.330;9.104;2023-07-31T04:03:41;2.50;;;1.37;;
3131;SDS011;62090;52.330;9.104;2023-07-31T04:06:11;2.80;;;1.03;;
3131;SDS011;62090;52.330;9.104;2023-07-31T04:08:44;3.00;;;1.20;;
3131;SDS011;62090;52.330;9.104;2023-07-31T04:11:14;3.37;;;1.37;;
3131;SDS011;62090;52.330;9.104;2023-07-31T04:13:47;4.10;;;1.47;;
3131;SDS011;62090;52.330;9.104;2023-07-31T04:16:16;4.10;;;1.07;;
3131;SDS011;62090;52.330;9.104;2023-07-31T04:18:46;2.00;;;1.37;;
3131;SDS011;62090;52.330;9.104;2023-07-31T04:21:16;1.57;;;1.03;;
3131;SDS011;62090;52.330;9.104;2023-07-31T04:23:46;3.37;;;0.80;;
3131;SDS011;62090;52.330;9.104;2023-07-31T04:26:16;1.13;;;0.90;;
3131;SDS011;62090;52.330;9.104;2023-07-31T04:28:49;2.17;;;1.20;;
3131;SDS011;62090;52.330;9.104;2023-07-31T04:31:19;3.00;;;0.73;;
3131;SDS011;62090;52.330;9.104;2023-07-31T04:33:49;2.07;;;1.00;;
3131;SDS011;62090;52.330;9.104;2023-07-31T04:36:18;2.40;;;1.23;;
3131;SDS011;62090;52.330;9.104;2023-07-31T04:38:48;4.47;;;1.00;;
3131;SDS011;62090;52.330;9.104;2023-07-31T04:41:18;1.50;;;1.10;;
3131;SDS011;62090;52.330;9.104;2023-07-31T04:43:51;2.20;;;1.20;;
3131;SDS011;62090;52.330;9.104;2023-07-31T04:46:21;1.60;;;1.30;;
3131;SDS011;62090;52.330;9.104;2023-07-31T04:48:50;1.87;;;1.50;;
3131;SDS011;62090;52.330;9.104;2023-07-31T04:51:20;2.90;;;1.70;;
3131;SDS011;62090;52.330;9.104;2023-07-31T04:53:51;16.70;;;3.57;;
3131;SDS011;62090;52.330;9.104;2023-07-31T04:56:21;2.07;;;1.87;;
3131;SDS011;62090;52.330;9.104;2023-07-31T04:58:54;3.93;;;2.47;;
3131;SDS011;62090;52.330;9.104;2023-07-31T05:01:24;4.50;;;2.50;;
3131;SDS011;62090;52.330;9.104;2023-07-31T05:03:54;5.50;;;3.60;;
3131;SDS011;62090;52.330;9.104;2023-07-31T05:06:24;7.37;;;3.70;;
3131;SDS011;62090;52.330;9.104;2023-07-31T05:08:54;9.90;;;4.30;;
3131;SDS011;62090;52.330;9.104;2023-07-31T05:11:24;9.27;;;4.67;;
3131;SDS011;62090;52.330;9.104;2023-07-31T05:13:56;9.00;;;5.23;;
3131;SDS011;62090;52.330;9.104;2023-07-31T05:16:26;10.70;;;6.00;;
3131;SDS011;62090;52.330;9.104;2023-07-31T05:18:56;13.93;;;6.60;;
3131;SDS011;62090;52.330;9.104;2023-07-31T05:21:26;15.30;;;7.73;;
3131;SDS011;62090;52.330;9.104;2023-07-31T05:23:56;19.17;;;7.80;;
3131;SDS011;62090;52.330;9.104;2023-07-31T05:26:26;13.50;;;7.20;;
3131;SDS011;62090;52.330;9.104;2023-07-31T05:28:58;26.93;;;8.87;;
3131;SDS011;62090;52.330;9.104;2023-07-31T05:31:28;18.53;;;8.37;;
3131;SDS011;62090;52.330;9.104;2023-07-31T05:33:59;16.10;;;7.73;;
3131;SDS011;62090;52.330;9.104;2023-07-31T05:36:29;18.13;;;9.30;;
3131;SDS011;62090;52.330;9.104;2023-07-31T05:38:58;14.73;;;7.87;;
3131;SDS011;62090;52.330;9.104;2023-07-31T05:41:32;25.40;;;9.50;;
3131;SDS011;62090;52.330;9.104;2023-07-31T05:44:05;16.90;;;9.00;;
3131;SDS011;62090;52.330;9.104;2023-07-31T05:46:35;17.70;;;9.20;;
3131;SDS011;62090;52.330;9.104;2023-07-31T05:49:05;21.53;;;9.40;;
3131;SDS011;62090;52.330;9.104;2023-07-31T05:51:36;23.47;;;9.20;;
3131;SDS011;62090;52.330;9.104;2023-07-31T05:54:06;28.43;;;9.43;;
3131;SDS011;62090;52.330;9.104;2023-07-31T05:56:36;14.67;;;9.10;;
3131;SDS011;62090;52.330;9.104;2023-07-31T05:59:09;24.63;;;9.50;;
3131;SDS011;62090;52.330;9.104;2023-07-31T06:01:42;18.37;;;9.23;;
3131;SDS011;62090;52.330;9.104;2023-07-31T06:04:12;23.67;;;9.00;;
3131;SDS011;62090;52.330;9.104;2023-07-31T06:06:42;21.40;;;9.33;;
3131;SDS011;62090;52.330;9.104;2023-07-31T06:09:12;18.40;;;9.63;;
3131;SDS011;62090;52.330;9.104;2023-07-31T06:11:41;19.20;;;8.03;;
3131;SDS011;62090;52.330;9.104;2023-07-31T06:14:14;27.63;;;10.50;;
3131;SDS011;62090;52.330;9.104;2023-07-31T06:16:44;23.40;;;9.50;;
3131;SDS011;62090;52.330;9.104;2023-07-31T06:19:14;20.37;;;9.83;;
3131;SDS011;62090;52.330;9.104;2023-07-31T06:21:43;26.33;;;9.20;;
3131;SDS011;62090;52.330;9.104;2023-07-31T06:24:13;22.57;;;9.73;;
3131;SDS011;62090;52.330;9.104;2023-07-31T06:26:46;27.37;;;8.97;;
3131;SDS011;62090;52.330;9.104;2023-07-31T06:29:20;21.17;;;9.17;;
3131;SDS011;62090;52.330;9.104;2023-07-31T06:31:50;21.57;;;9.73;;
3131;SDS011;62090;52.330;9.104;2023-07-31T06:34:20;22.17;;;9.70;;
3131;SDS011;62090;52.330;9.104;2023-07-31T06:36:50;17.47;;;8.77;;
3131;SDS011;62090;52.330;9.104;2023-07-31T06:39:19;25.20;;;9.13;;
3131;SDS011;62090;52.330;9.104;2023-07-31T06:41:49;26.43;;;10.27;;
3131;SDS011;62090;52.330;9.104;2023-07-31T06:44:22;23.60;;;9.70;;
3131;SDS011;62090;52.330;9.104;2023-07-31T06:46:52;20.97;;;8.70;;
3131;SDS011;62090;52.330;9.104;2023-07-31T06:49:22;23.47;;;9.33;;
3131;SDS011;62090;52.330;9.104;2023-07-31T06:51:52;19.60;;;8.40;;
3131;SDS011;62090;52.330;9.104;2023-07-31T06:54:22;20.13;;;8.20;;
3131;SDS011;62090;52.330;9.104;2023-07-31T06:56:52;25.77;;;10.00;;
3131;SDS011;62090;52.330;9.104;2023-07-31T06:59:24;23.77;;;7.90;;
3131;SDS011;62090;52.330;9.104;2023-07-31T07:01:54;33.10;;;10.17;;
3131;SDS011;62090;52.330;9.104;2023-07-31T07:04:24;28.27;;;10.20;;
3131;SDS011;62090;52.330;9.104;2023-07-31T07:06:54;20.03;;;8.50;;
3131;SDS011;62090;52.330;9.104;2023-07-31T07:09:24;24.73;;;7.97;;
3131;SDS011;62090;52.330;9.104;2023-07-31T07:11:53;24.53;;;8.37;;
3131;SDS011;62090;52.330;9.104;2023-07-31T07:14:26;25.87;;;8.77;;
3131;SDS011;62090;52.330;9.104;2023-07-31T07:16:56;25.17;;;10.20;;
3131;SDS011;62090;52.330;9.104;2023-07-31T07:19:29;26.30;;;8.73;;
3131;SDS011;62090;52.330;9.104;2023-07-31T07:21:58;23.80;;;9.33;;
3131;SDS011;62090;52.330;9.104;2023-07-31T07:24:29;18.70;;;8.50;;
3131;SDS011;62090;52.330;9.104;2023-07-31T07:26:59;20.43;;;8.90;;
3131;SDS011;62090;52.330;9.104;2023-07-31T07:29:31;23.30;;;8.10;;
3131;SDS011;62090;52.330;9.104;2023-07-31T07:32:01;24.13;;;8.17;;
3131;SDS011;62090;52.330;9.104;2023-07-31T07:34:33;18.87;;;8.57;;
3131;SDS011;62090;52.330;9.104;2023-07-31T07:37:03;22.50;;;9.70;;
3131;SDS011;62090;52.330;9.104;2023-07-31T07:39:33;22.83;;;10.17;;
3131;SDS011;62090;52.330;9.104;2023-07-31T07:42:03;26.30;;;7.53;;
3131;SDS011;62090;52.330;9.104;2023-07-31T07:44:36;30.97;;;10.53;;
3131;SDS011;62090;52.330;9.104;2023-07-31T07:47:06;33.53;;;10.10;;
3131;SDS011;62090;52.330;9.104;2023-07-31T07:49:36;18.73;;;8.37;;
3131;SDS011;62090;52.330;9.104;2023-07-31T07:52:06;19.40;;;7.80;;
3131;SDS011;62090;52.330;9.104;2023-07-31T07:54:36;17.57;;;7.17;;
3131;SDS011;62090;52.330;9.104;2023-07-31T07:57:06;30.23;;;9.60;;
3131;SDS011;62090;52.330;9.104;2023-07-31T07:59:38;20.00;;;7.17;;
3131;SDS011;62090;52.330;9.104;2023-07-31T08:02:08;18.23;;;7.17;;
3131;SDS011;62090;52.330;9.104;2023-07-31T08:04:38;30.20;;;7.33;;
3131;SDS011;62090;52.330;9.104;2023-07-31T08:07:10;17.97;;;6.00;;
3131;SDS011;62090;52.330;9.104;2023-07-31T08:09:40;17.07;;;6.60;;
3131;SDS011;62090;52.330;9.104;2023-07-31T08:12:10;16.83;;;6.37;;
3131;SDS011;62090;52.330;9.104;2023-07-31T08:14:43;15.30;;;5.40;;
3131;SDS011;62090;52.330;9.104;2023-07-31T08:17:13;14.40;;;6.70;;
3131;SDS011;62090;52.330;9.104;2023-07-31T08:19:43;15.63;;;6.40;;
3131;SDS011;62090;52.330;9.104;2023-07-31T08:22:13;16.23;;;5.90;;
3131;SDS011;62090;52.330;9.104;2023-07-31T08:24:43;13.23;;;5.80;;
3131;SDS011;62090;52.330;9.104;2023-07-31T08:27:13;16.07;;;5.27;;
3131;SDS011;62090;52.330;9.104;2023-07-31T08:29:46;17.97;;;5.73;;
3131;SDS011;62090;52.330;9.104;2023-07-31T08:32:16;12.13;;;5.20;;
3131;SDS011;62090;52.330;9.104;2023-07-31T08:34:45;9.93;;;5.60;;
3131;SDS011;62090;52.330;9.104;2023-07-31T08:37:15;19.00;;;5.47;;
3131;SDS011;62090;52.330;9.104;2023-07-31T08:39:45;11.93;;;5.93;;
3131;SDS011;62090;52.330;9.104;2023-07-31T08:42:15;15.47;;;6.47;;
3131;SDS011;62090;52.330;9.104;2023-07-31T08:44:48;20.43;;;7.13;;
3131;SDS011;62090;52.330;9.104;2023-07-31T08:47:19;15.37;;;6.70;;
3131;SDS011;62090;52.330;9.104;2023-07-31T08:49:51;15.07;;;7.03;;
3131;SDS011;62090;52.330;9.104;2023-07-31T08:52:22;14.30;;;6.87;;
3131;SDS011;62090;52.330;9.104;2023-07-31T08:54:52;19.00;;;7.27;;
3131;SDS011;62090;52.330;9.104;2023-07-31T08:57:21;10.70;;;6.20;;
3131;SDS011;62090;52.330;9.104;2023-07-31T08:59:54;12.63;;;6.10;;
3131;SDS011;62090;52.330;9.104;2023-07-31T09:02:25;11.07;;;6.20;;
3131;SDS011;62090;52.330;9.104;2023-07-31T09:05:01;10.87;;;5.70;;
3131;SDS011;62090;52.330;9.104;2023-07-31T09:07:32;9.17;;;5.70;;
3131;SDS011;62090;52.330;9.104;2023-07-31T09:10:04;9.60;;;5.87;;
3131;SDS011;62090;52.330;9.104;2023-07-31T09:12:35;8.00;;;4.90;;
3131;SDS011;62090;52.330;9.104;2023-07-31T09:15:08;6.67;;;4.20;;
3131;SDS011;62090;52.330;9.104;2023-07-31T09:17:50;6.30;;;4.40;;
3131;SDS011;62090;52.330;9.104;2023-07-31T09:20:29;6.80;;;4.03;;
3131;SDS011;62090;52.330;9.104;2023-07-31T09:23:06;5.90;;;3.67;;
3131;SDS011;62090;52.330;9.104;2023-07-31T09:25:37;9.33;;;4.67;;
3131;SDS011;62090;52.330;9.104;2023-07-31T09:28:09;6.10;;;3.43;;
3131;SDS011;62090;52.330;9.104;2023-07-31T09:30:49;9.07;;;3.27;;
3131;SDS011;62090;52.330;9.104;2023-07-31T09:33:20;7.37;;;3.40;;
3131;SDS011;62090;52.330;9.104;2023-07-31T09:35:50;7.70;;;3.97;;
3131;SDS011;62090;52.330;9.104;2023-07-31T09:38:19;5.27;;;3.00;;
3131;SDS011;62090;52.330;9.104;2023-07-31T09:40:49;6.27;;;3.57;;
3131;SDS011;62090;52.330;9.104;2023-07-31T09:43:20;4.07;;;2.90;;
3131;SDS011;62090;52.330;9.104;2023-07-31T09:45:56;6.83;;;3.40;;
3131;SDS011;62090;52.330;9.104;2023-07-31T09:48:26;4.70;;;3.03;;
3131;SDS011;62090;52.330;9.104;2023-07-31T09:50:57;6.97;;;3.67;;
3131;SDS011;62090;52.330;9.104;2023-07-31T09:53:35;6.60;;;3.47;;
3131;SDS011;62090;52.330;9.104;2023-07-31T09:56:04;4.70;;;3.40;;
3131;SDS011;62090;52.330;9.104;2023-07-31T09:58:35;9.33;;;2.83;;
3131;SDS011;62090;52.330;9.104;2023-07-31T10:01:07;6.30;;;3.40;;
3131;SDS011;62090;52.330;9.104;2023-07-31T10:03:38;5.23;;;3.17;;
3131;SDS011;62090;52.330;9.104;2023-07-31T10:06:09;5.50;;;2.97;;
3131;SDS011;62090;52.330;9.104;2023-07-31T10:08:39;3.70;;;2.93;;
3131;SDS011;62090;52.330;9.104;2023-07-31T10:11:10;15.63;;;2.93;;
3131;SDS011;62090;52.330;9.104;2023-07-31T10:13:41;7.13;;;2.70;;
3131;SDS011;62090;52.330;9.104;2023-07-31T10:16:14;4.82;;;3.10;;
3131;SDS011;62090;52.330;9.104;2023-07-31T10:18:47;5.03;;;2.83;;
3131;SDS011;62090;52.330;9.104;2023-07-31T10:21:18;4.20;;;2.80;;
3131;SDS011;62090;52.330;9.104;2023-07-31T10:23:48;32.37;;;3.80;;
3131;SDS011;62090;52.330;9.104;2023-07-31T10:26:20;3.90;;;2.63;;
3131;SDS011;62090;52.330;9.104;2023-07-31T10:28:54;7.77;;;2.73;;
3131;SDS011;62090;52.330;9.104;2023-07-31T10:31:27;4.43;;;2.40;;
3131;SDS011;62090;52.330;9.104;2023-07-31T10:33:57;3.30;;;2.80;;
3131;SDS011;62090;52.330;9.104;2023-07-31T10:36:29;5.70;;;3.03;;
3131;SDS011;62090;52.330;9.104;2023-07-31T10:38:59;5.63;;;3.10;;
3131;SDS011;62090;52.330;9.104;2023-07-31T10:41:32;3.90;;;2.70;;
3131;SDS011;62090;52.330;9.104;2023-07-31T10:44:04;3.53;;;2.30;;
3131;SDS011;62090;52.330;9.104;2023-07-31T10:46:39;4.63;;;2.53;;
3131;SDS011;62090;52.330;9.104;2023-07-31T10:49:09;4.17;;;2.37;;
3131;SDS011;62090;52.330;9.104;2023-07-31T10:51:50;4.13;;;2.20;;
3131;SDS011;62090;52.330;9.104;2023-07-31T10:54:19;4.07;;;2.60;;
3131;SDS011;62090;52.330;9.104;2023-07-31T10:56:49;4.87;;;2.70;;
3131;SDS011;62090;52.330;9.104;2023-07-31T10:59:20;2.43;;;1.70;;
3131;SDS011;62090;52.330;9.104;2023-07-31T11:01:58;3.03;;;2.10;;
3131;SDS011;62090;52.330;9.104;2023-07-31T11:04:30;2.27;;;1.60;;
3131;SDS011;62090;52.330;9.104;2023-07-31T11:07:01;3.40;;;2.17;;
3131;SDS011;62090;52.330;9.104;2023-07-31T11:09:35;5.23;;;2.57;;
3131;SDS011;62090;52.330;9.104;2023-07-31T11:12:05;3.00;;;1.80;;
3131;SDS011;62090;52.330;9.104;2023-07-31T11:14:36;3.00;;;1.90;;
3131;SDS011;62090;52.330;9.104;2023-07-31T11:17:09;9.33;;;2.20;;
3131;SDS011;62090;52.330;9.104;2023-07-31T11:19:39;3.53;;;1.77;;
3131;SDS011;62090;52.330;9.104;2023-07-31T11:22:09;3.70;;;1.70;;
3131;SDS011;62090;52.330;9.104;2023-07-31T11:24:39;3.07;;;1.77;;
3131;SDS011;62090;52.330;9.104;2023-07-31T11:27:08;1.43;;;1.20;;
3131;SDS011;62090;52.330;9.104;2023-07-31T11:29:38;3.73;;;1.73;;
3131;SDS011;62090;52.330;9.104;2023-07-31T11:32:17;2.30;;;1.73;;
3131;SDS011;62090;52.330;9.104;2023-07-31T11:34:51;1.90;;;1.47;;
3131;SDS011;62090;52.330;9.104;2023-07-31T11:37:22;2.27;;;1.50;;
3131;SDS011;62090;52.330;9.104;2023-07-31T11:39:58;2.37;;;1.63;;
3131;SDS011;62090;52.330;9.104;2023-07-31T11:42:29;2.13;;;1.60;;
3131;SDS011;62090;52.330;9.104;2023-07-31T11:45:01;1.30;;;1.20;;
3131;SDS011;62090;52.330;9.104;2023-07-31T11:47:34;4.60;;;1.47;;
3131;SDS011;62090;52.330;9.104;2023-07-31T11:50:06;4.10;;;1.47;;
3131;SDS011;62090;52.330;9.104;2023-07-31T11:52:42;2.07;;;1.00;;
3131;SDS011;62090;52.330;9.104;2023-07-31T11:55:14;2.42;;;1.30;;
3131;SDS011;62090;52.330;9.104;2023-07-31T11:57:45;1.43;;;1.00;;
3131;SDS011;62090;52.330;9.104;2023-07-31T12:00:16;8.70;;;1.37;;
3131;SDS011;62090;52.330;9.104;2023-07-31T12:02:49;1.20;;;0.93;;
3131;SDS011;62090;52.330;9.104;2023-07-31T12:05:20;1.80;;;1.60;;
3131;SDS011;62090;52.330;9.104;2023-07-31T12:07:52;1.57;;;1.10;;
3131;SDS011;62090;52.330;9.104;2023-07-31T12:10:27;2.60;;;1.27;;
3131;SDS011;62090;52.330;9.104;2023-07-31T12:12:59;2.07;;;1.30;;
3131;SDS011;62090;52.330;9.104;2023-07-31T12:15:34;2.87;;;1.10;;
3131;SDS011;62090;52.330;9.104;2023-07-31T12:18:09;1.40;;;1.00;;
3131;SDS011;62090;52.330;9.104;2023-07-31T12:20:44;2.33;;;1.10;;
3131;SDS011;62090;52.330;9.104;2023-07-31T12:23:16;2.10;;;1.50;;
3131;SDS011;62090;52.330;9.104;2023-07-31T12:25:59;1.77;;;1.13;;
3131;SDS011;62090;52.330;9.104;2023-07-31T12:28:30;2.00;;;1.40;;
3131;SDS011;62090;52.330;9.104;2023-07-31T12:31:04;1.43;;;1.20;;
3131;SDS011;62090;52.330;9.104;2023-07-31T12:33:37;1.97;;;1.50;;
3131;SDS011;62090;52.330;9.104;2023-07-31T12:36:09;2.00;;;1.37;;
3131;SDS011;62090;52.330;9.104;2023-07-31T12:38:41;1.47;;;1.07;;
3131;SDS011;62090;52.330;9.104;2023-07-31T12:41:11;1.60;;;1.40;;
3131;SDS011;62090;52.330;9.104;2023-07-31T12:43:42;2.00;;;1.30;;
3131;SDS011;62090;52.330;9.104;2023-07-31T12:46:13;1.43;;;1.13;;
3131;SDS011;62090;52.330;9.104;2023-07-31T12:48:46;2.20;;;1.13;;
3131;SDS011;62090;52.330;9.104;2023-07-31T12:51:16;1.77;;;1.50;;
3131;SDS011;62090;52.330;9.104;2023-07-31T12:53:46;1.63;;;1.43;;
3131;SDS011;62090;52.330;9.104;2023-07-31T12:56:16;1.37;;;1.23;;
3131;SDS011;62090;52.330;9.104;2023-07-31T12:58:46;1.80;;;1.10;;
3131;SDS011;62090;52.330;9.104;2023-07-31T13:01:16;1.63;;;1.10;;
3131;SDS011;62090;52.330;9.104;2023-07-31T13:03:49;2.60;;;1.27;;
3131;SDS011;62090;52.330;9.104;2023-07-31T13:06:19;1.57;;;1.13;;
3131;SDS011;62090;52.330;9.104;2023-07-31T13:08:49;1.63;;;1.30;;
3131;SDS011;62090;52.330;9.104;2023-07-31T13:11:19;8.18;;;1.10;;
3131;SDS011;62090;52.330;9.104;2023-07-31T13:13:48;1.33;;;0.90;;
3131;SDS011;62090;52.330;9.104;2023-07-31T13:16:18;1.83;;;1.23;;
3131;SDS011;62090;52.330;9.104;2023-07-31T13:18:51;1.67;;;1.00;;
3131;SDS011;62090;52.330;9.104;2023-07-31T13:21:21;1.87;;;1.00;;
3131;SDS011;62090;52.330;9.104;2023-07-31T13:23:51;2.00;;;1.40;;
3131;SDS011;62090;52.330;9.104;2023-07-31T13:26:21;0.90;;;0.80;;
3131;SDS011;62090;52.330;9.104;2023-07-31T13:28:50;2.00;;;1.07;;
3131;SDS011;62090;52.330;9.104;2023-07-31T13:31:20;2.20;;;1.07;;
3131;SDS011;62090;52.330;9.104;2023-07-31T13:33:53;1.37;;;1.00;;
3131;SDS011;62090;52.330;9.104;2023-07-31T13:36:23;3.50;;;1.10;;
3131;SDS011;62090;52.330;9.104;2023-07-31T13:38:53;7.03;;;1.43;;
3131;SDS011;62090;52.330;9.104;2023-07-31T13:41:23;1.23;;;1.13;;
3131;SDS011;62090;52.330;9.104;2023-07-31T13:43:53;6.93;;;1.97;;
3131;SDS011;62090;52.330;9.104;2023-07-31T13:46:23;3.40;;;1.53;;
3131;SDS011;62090;52.330;9.104;2023-07-31T13:48:56;2.10;;;1.90;;
3131;SDS011;62090;52.330;9.104;2023-07-31T13:51:28;2.67;;;2.17;;
3131;SDS011;62090;52.330;9.104;2023-07-31T13:53:58;3.70;;;2.77;;
3131;SDS011;62090;52.330;9.104;2023-07-31T13:56:27;3.93;;;2.53;;
3131;SDS011;62090;52.330;9.104;2023-07-31T13:58:57;3.70;;;2.67;;
3131;SDS011;62090;52.330;9.104;2023-07-31T14:01:27;3.40;;;2.90;;
3131;SDS011;62090;52.330;9.104;2023-07-31T14:04:00;6.27;;;3.43;;
3131;SDS011;62090;52.330;9.104;2023-07-31T14:06:30;4.47;;;3.80;;
3131;SDS011;62090;52.330;9.104;2023-07-31T14:09:01;4.30;;;3.50;;
3131;SDS011;62090;52.330;9.104;2023-07-31T14:11:31;9.17;;;4.47;;
3131;SDS011;62090;52.330;9.104;2023-07-31T14:14:01;8.40;;;4.00;;
3131;SDS011;62090;52.330;9.104;2023-07-31T14:16:32;6.83;;;4.50;;
3131;SDS011;62090;52.330;9.104;2023-07-31T14:19:07;7.30;;;4.70;;
3131;SDS011;62090;52.330;9.104;2023-07-31T14:21:38;7.63;;;5.33;;
3131;SDS011;62090;52.330;9.104;2023-07-31T14:24:11;6.50;;;4.47;;
3131;SDS011;62090;52.330;9.104;2023-07-31T14:26:41;7.90;;;4.37;;
3131;SDS011;62090;52.330;9.104;2023-07-31T14:29:13;7.30;;;4.83;;
3131;SDS011;62090;52.330;9.104;2023-07-31T14:31:44;6.93;;;4.33;;
3131;SDS011;62090;52.330;9.104;2023-07-31T14:34:20;6.80;;;4.60;;
3131;SDS011;62090;52.330;9.104;2023-07-31T14:36:51;5.30;;;3.50;;
3131;SDS011;62090;52.330;9.104;2023-07-31T14:39:24;5.27;;;3.70;;
3131;SDS011;62090;52.330;9.104;2023-07-31T14:41:54;6.97;;;3.87;;
3131;SDS011;62090;52.330;9.104;2023-07-31T14:44:25;7.03;;;3.53;;
3131;SDS011;62090;52.330;9.104;2023-07-31T14:46:58;5.30;;;3.40;;
3131;SDS011;62090;52.330;9.104;2023-07-31T14:49:30;5.30;;;3.30;;
3131;SDS011;62090;52.330;9.104;2023-07-31T14:52:00;9.33;;;3.60;;
3131;SDS011;62090;52.330;9.104;2023-07-31T14:54:31;5.13;;;3.30;;
3131;SDS011;62090;52.330;9.104;2023-07-31T14:57:01;4.63;;;3.50;;
3131;SDS011;62090;52.330;9.104;2023-07-31T14:59:31;5.33;;;3.27;;
3131;SDS011;62090;52.330;9.104;2023-07-31T15:02:01;5.97;;;3.67;;
3131;SDS011;62090;52.330;9.104;2023-07-31T15:04:34;4.37;;;3.50;;
3131;SDS011;62090;52.330;9.104;2023-07-31T15:07:05;4.83;;;3.70;;
3131;SDS011;62090;52.330;9.104;2023-07-31T15:09:35;6.00;;;4.03;;
3131;SDS011;62090;52.330;9.104;2023-07-31T15:12:05;20.13;;;4.97;;
3131;SDS011;62090;52.330;9.104;2023-07-31T15:14:36;6.10;;;4.07;;
3131;SDS011;62090;52.330;9.104;2023-07-31T15:17:07;4.87;;;3.20;;
3131;SDS011;62090;52.330;9.104;2023-07-31T15:19:39;8.37;;;4.33;;
3131;SDS011;62090;52.330;9.104;2023-07-31T15:22:09;5.40;;;3.80;;